sensor_id;sensor_type;location;lat;lon;timestamp;P1;durP1;ratioP1;P2;durP2;ratioP2
2538;SDS011;1280;49.760;9.664;2024-03-22T00:01:48;44.43;;;25.80;;
2538;SDS011;1280;49.760;9.664;2024-03-22T00:04:23;27.13;;;18.93;;
2538;SDS011;1280;49.760;9.664;2024-03-22T00:06:54;26.00;;;17.10;;
2538;SDS011;1280;49.760;9.664;2024-03-22T00:09:23;26.63;;;18.07;;
2538;SDS011;1280;49.760;9.664;2024-03-22T00:11:50;30.47;;;17.60;;
2538;SDS011;1280;49.760;9.664;2024-03-22T00:14:21;33.70;;;20.37;;
2538;SDS011;1280;49.760;9.664;2024-03-22T00:16:49;35.30;;;21.77;;
2538;SDS011;1280;49.760;9.664;2024-03-22T00:19:21;28.70;;;18.43;;
2538;SDS011;1280;49.760;9.664;2024-03-22T00:21:52;24.90;;;16.17;;
2538;SDS011;1280;49.760;9.664;2024-03-22T00:24:24;29.53;;;17.93;;
2538;SDS011;1280;49.760;9.664;2024-03-22T00:26:52;23.40;;;17.00;;
2538;SDS011;1280;49.760;9.664;2024-03-22T00:29:24;26.77;;;16.87;;
2538;SDS011;1280;49.760;9.664;2024-03-22T00:31:51;38.53;;;23.60;;
2538;SDS011;1280;49.760;9.664;2024-03-22T00:34:23;37.03;;;23.50;;
2538;SDS011;1280;49.760;9.664;2024-03-22T00:36:50;28.47;;;17.97;;
2538;SDS011;1280;49.760;9.664;2024-03-22T00:39:23;27.60;;;17.40;;
2538;SDS011;1280;49.760;9.664;2024-03-22T00:41:50;31.10;;;19.53;;
2538;SDS011;1280;49.760;9.664;2024-03-22T00:44:22;32.23;;;19.50;;
2538;SDS011;1280;49.760;9.664;2024-03-22T00:46:52;28.97;;;19.20;;
2538;SDS011;1280;49.760;9.664;2024-03-22T00:49:23;30.03;;;20.33;;
2538;SDS011;1280;49.760;9.664;2024-03-22T00:51:52;36.73;;;21.00;;
2538;SDS011;1280;49.760;9.664;2024-03-22T00:54:27;44.90;;;27.10;;
2538;SDS011;1280;49.760;9.664;2024-03-22T00:56:54;36.73;;;22.33;;
2538;SDS011;1280;49.760;9.664;2024-03-22T00:59:36;39.83;;;21.53;;
2538;SDS011;1280;49.760;9.664;2024-03-22T01:02:21;34.47;;;19.07;;
2538;SDS011;1280;49.760;9.664;2024-03-22T01:04:50;48.10;;;25.67;;
2538;SDS011;1280;49.760;9.664;2024-03-22T01:07:19;48.00;;;26.50;;
2538;SDS011;1280;49.760;9.664;2024-03-22T01:09:48;37.70;;;21.33;;
2538;SDS011;1280;49.760;9.664;2024-03-22T01:12:20;32.77;;;19.20;;
2538;SDS011;1280;49.760;9.664;2024-03-22T01:14:53;34.03;;;18.80;;
2538;SDS011;1280;49.760;9.664;2024-03-22T01:17:30;31.00;;;19.40;;
2538;SDS011;1280;49.760;9.664;2024-03-22T01:19:58;35.80;;;21.00;;
2538;SDS011;1280;49.760;9.664;2024-03-22T01:22:29;31.93;;;18.53;;
2538;SDS011;1280;49.760;9.664;2024-03-22T01:25:02;28.20;;;18.00;;
2538;SDS011;1280;49.760;9.664;2024-03-22T01:27:32;40.20;;;23.40;;
2538;SDS011;1280;49.760;9.664;2024-03-22T01:30:02;36.53;;;22.30;;
2538;SDS011;1280;49.760;9.664;2024-03-22T01:32:34;36.93;;;22.20;;
2538;SDS011;1280;49.760;9.664;2024-03-22T01:35:03;36.63;;;22.70;;
2538;SDS011;1280;49.760;9.664;2024-03-22T01:37:32;29.70;;;18.20;;
2538;SDS011;1280;49.760;9.664;2024-03-22T01:40:05;36.17;;;21.37;;
2538;SDS011;1280;49.760;9.664;2024-03-22T01:42:52;60.40;;;35.43;;
2538;SDS011;1280;49.760;9.664;2024-03-22T01:45:30;38.87;;;22.70;;
2538;SDS011;1280;49.760;9.664;2024-03-22T01:48:02;31.07;;;19.73;;
2538;SDS011;1280;49.760;9.664;2024-03-22T01:50:30;31.37;;;19.27;;
2538;SDS011;1280;49.760;9.664;2024-03-22T01:53:00;32.40;;;19.37;;
2538;SDS011;1280;49.760;9.664;2024-03-22T01:55:34;30.47;;;19.97;;
2538;SDS011;1280;49.760;9.664;2024-03-22T01:58:04;31.50;;;19.50;;
2538;SDS011;1280;49.760;9.664;2024-03-22T02:00:33;35.40;;;21.50;;
2538;SDS011;1280;49.760;9.664;2024-03-22T02:03:04;35.83;;;19.83;;
2538;SDS011;1280;49.760;9.664;2024-03-22T02:05:30;35.27;;;21.77;;
2538;SDS011;1280;49.760;9.664;2024-03-22T02:08:01;34.90;;;20.43;;
2538;SDS011;1280;49.760;9.664;2024-03-22T02:10:27;40.13;;;24.03;;
2538;SDS011;1280;49.760;9.664;2024-03-22T02:13:01;37.60;;;22.50;;
2538;SDS011;1280;49.760;9.664;2024-03-22T02:15:31;51.47;;;29.67;;
2538;SDS011;1280;49.760;9.664;2024-03-22T02:17:59;40.23;;;23.47;;
2538;SDS011;1280;49.760;9.664;2024-03-22T02:20:25;32.13;;;19.93;;
2538;SDS011;1280;49.760;9.664;2024-03-22T02:22:55;29.90;;;19.10;;
2538;SDS011;1280;49.760;9.664;2024-03-22T02:25:26;33.63;;;20.07;;
2538;SDS011;1280;49.760;9.664;2024-03-22T02:27:53;31.30;;;19.30;;
2538;SDS011;1280;49.760;9.664;2024-03-22T02:30:22;35.83;;;21.43;;
2538;SDS011;1280;49.760;9.664;2024-03-22T02:32:52;33.10;;;20.90;;
2538;SDS011;1280;49.760;9.664;2024-03-22T02:35:21;33.83;;;22.27;;
2538;SDS011;1280;49.760;9.664;2024-03-22T02:37:54;33.97;;;22.50;;
2538;SDS011;1280;49.760;9.664;2024-03-22T02:40:27;32.80;;;20.83;;
2538;SDS011;1280;49.760;9.664;2024-03-22T02:42:59;107.90;;;46.57;;
2538;SDS011;1280;49.760;9.664;2024-03-22T02:45:29;113.77;;;50.27;;
2538;SDS011;1280;49.760;9.664;2024-03-22T02:48:05;97.53;;;46.97;;
2538;SDS011;1280;49.760;9.664;2024-03-22T02:50:35;96.27;;;48.67;;
2538;SDS011;1280;49.760;9.664;2024-03-22T02:53:05;57.80;;;35.60;;
2538;SDS011;1280;49.760;9.664;2024-03-22T02:55:49;45.67;;;28.40;;
2538;SDS011;1280;49.760;9.664;2024-03-22T02:58:31;31.60;;;20.40;;
2538;SDS011;1280;49.760;9.664;2024-03-22T03:01:07;29.87;;;17.93;;
2538;SDS011;1280;49.760;9.664;2024-03-22T03:03:38;30.77;;;18.70;;
2538;SDS011;1280;49.760;9.664;2024-03-22T03:06:11;29.03;;;18.17;;
2538;SDS011;1280;49.760;9.664;2024-03-22T03:08:40;31.60;;;17.90;;
2538;SDS011;1280;49.760;9.664;2024-03-22T03:11:12;29.60;;;18.63;;
2538;SDS011;1280;49.760;9.664;2024-03-22T03:13:43;32.13;;;19.30;;
2538;SDS011;1280;49.760;9.664;2024-03-22T03:16:18;35.70;;;22.20;;
2538;SDS011;1280;49.760;9.664;2024-03-22T03:18:49;31.93;;;19.50;;
2538;SDS011;1280;49.760;9.664;2024-03-22T03:21:20;30.37;;;17.60;;
2538;SDS011;1280;49.760;9.664;2024-03-22T03:23:48;34.20;;;21.70;;
2538;SDS011;1280;49.760;9.664;2024-03-22T03:26:30;34.97;;;19.30;;
2538;SDS011;1280;49.760;9.664;2024-03-22T03:28:57;29.37;;;17.50;;
2538;SDS011;1280;49.760;9.664;2024-03-22T03:31:29;25.97;;;15.93;;
2538;SDS011;1280;49.760;9.664;2024-03-22T03:34:03;38.97;;;21.77;;
2538;SDS011;1280;49.760;9.664;2024-03-22T03:36:33;38.20;;;22.60;;
2538;SDS011;1280;49.760;9.664;2024-03-22T03:39:03;44.20;;;29.10;;
2538;SDS011;1280;49.760;9.664;2024-03-22T03:41:47;56.27;;;38.03;;
2538;SDS011;1280;49.760;9.664;2024-03-22T03:44:14;86.33;;;49.47;;
2538;SDS011;1280;49.760;9.664;2024-03-22T03:46:43;60.47;;;36.73;;
2538;SDS011;1280;49.760;9.664;2024-03-22T03:49:11;60.80;;;39.03;;
2538;SDS011;1280;49.760;9.664;2024-03-22T03:51:45;52.70;;;33.10;;
2538;SDS011;1280;49.760;9.664;2024-03-22T03:54:15;38.60;;;24.30;;
2538;SDS011;1280;49.760;9.664;2024-03-22T03:56:45;41.40;;;26.23;;
2538;SDS011;1280;49.760;9.664;2024-03-22T03:59:18;48.10;;;27.37;;
2538;SDS011;1280;49.760;9.664;2024-03-22T04:01:55;39.27;;;23.40;;
2538;SDS011;1280;49.760;9.664;2024-03-22T04:04:26;32.63;;;20.40;;
2538;SDS011;1280;49.760;9.664;2024-03-22T04:07:00;28.17;;;17.23;;
2538;SDS011;1280;49.760;9.664;2024-03-22T04:09:28;30.53;;;17.70;;
2538;SDS011;1280;49.760;9.664;2024-03-22T04:12:07;29.33;;;19.47;;
2538;SDS011;1280;49.760;9.664;2024-03-22T04:14:36;32.13;;;20.90;;
2538;SDS011;1280;49.760;9.664;2024-03-22T04:17:19;34.80;;;19.70;;
2538;SDS011;1280;49.760;9.664;2024-03-22T04:19:49;33.50;;;18.27;;
2538;SDS011;1280;49.760;9.664;2024-03-22T04:22:16;30.40;;;18.60;;
2538;SDS011;1280;49.760;9.664;2024-03-22T04:24:46;27.27;;;17.10;;
2538;SDS011;1280;49.760;9.664;2024-03-22T04:27:17;25.73;;;16.57;;
2538;SDS011;1280;49.760;9.664;2024-03-22T04:29:48;30.00;;;16.73;;
2538;SDS011;1280;49.760;9.664;2024-03-22T04:32:14;26.27;;;16.70;;
2538;SDS011;1280;49.760;9.664;2024-03-22T04:34:47;27.17;;;15.77;;
2538;SDS011;1280;49.760;9.664;2024-03-22T04:37:16;25.70;;;15.57;;
2538;SDS011;1280;49.760;9.664;2024-03-22T04:39:58;28.23;;;16.80;;
2538;SDS011;1280;49.760;9.664;2024-03-22T04:42:40;25.50;;;15.90;;
2538;SDS011;1280;49.760;9.664;2024-03-22T04:45:08;25.80;;;16.20;;
2538;SDS011;1280;49.760;9.664;2024-03-22T04:47:46;25.13;;;15.50;;
2538;SDS011;1280;49.760;9.664;2024-03-22T04:50:13;23.47;;;15.37;;
2538;SDS011;1280;49.760;9.664;2024-03-22T04:52:46;26.60;;;16.17;;
2538;SDS011;1280;49.760;9.664;2024-03-22T04:55:13;26.40;;;16.00;;
2538;SDS011;1280;49.760;9.664;2024-03-22T04:57:46;26.67;;;16.20;;
2538;SDS011;1280;49.760;9.664;2024-03-22T05:00:14;30.17;;;17.53;;
2538;SDS011;1280;49.760;9.664;2024-03-22T05:02:43;29.03;;;18.67;;
2538;SDS011;1280;49.760;9.664;2024-03-22T05:05:12;30.87;;;18.50;;
2538;SDS011;1280;49.760;9.664;2024-03-22T05:07:47;33.57;;;19.27;;
2538;SDS011;1280;49.760;9.664;2024-03-22T05:10:18;28.83;;;16.93;;
2538;SDS011;1280;49.760;9.664;2024-03-22T05:12:48;31.00;;;19.50;;
2538;SDS011;1280;49.760;9.664;2024-03-22T05:15:21;34.60;;;19.90;;
2538;SDS011;1280;49.760;9.664;2024-03-22T05:17:47;29.90;;;19.67;;
2538;SDS011;1280;49.760;9.664;2024-03-22T05:20:24;31.00;;;18.00;;
2538;SDS011;1280;49.760;9.664;2024-03-22T05:22:53;33.60;;;20.00;;
2538;SDS011;1280;49.760;9.664;2024-03-22T05:25:22;27.37;;;18.00;;
2538;SDS011;1280;49.760;9.664;2024-03-22T05:27:55;28.13;;;17.37;;
2538;SDS011;1280;49.760;9.664;2024-03-22T05:30:26;27.90;;;17.10;;
2538;SDS011;1280;49.760;9.664;2024-03-22T05:32:55;30.10;;;18.37;;
2538;SDS011;1280;49.760;9.664;2024-03-22T05:35:27;29.60;;;18.70;;
2538;SDS011;1280;49.760;9.664;2024-03-22T05:37:56;32.40;;;18.10;;
2538;SDS011;1280;49.760;9.664;2024-03-22T05:40:27;30.90;;;18.73;;
2538;SDS011;1280;49.760;9.664;2024-03-22T05:42:56;30.07;;;18.63;;
2538;SDS011;1280;49.760;9.664;2024-03-22T05:45:39;28.27;;;18.10;;
2538;SDS011;1280;49.760;9.664;2024-03-22T05:48:13;30.07;;;19.10;;
2538;SDS011;1280;49.760;9.664;2024-03-22T05:50:46;27.70;;;17.40;;
2538;SDS011;1280;49.760;9.664;2024-03-22T05:53:26;28.93;;;17.07;;
2538;SDS011;1280;49.760;9.664;2024-03-22T05:55:54;31.43;;;17.93;;
2538;SDS011;1280;49.760;9.664;2024-03-22T05:58:24;26.30;;;14.80;;
2538;SDS011;1280;49.760;9.664;2024-03-22T06:00:52;27.03;;;16.23;;
2538;SDS011;1280;49.760;9.664;2024-03-22T06:03:22;29.00;;;17.00;;
2538;SDS011;1280;49.760;9.664;2024-03-22T06:05:49;28.73;;;16.97;;
2538;SDS011;1280;49.760;9.664;2024-03-22T06:08:26;28.20;;;18.00;;
2538;SDS011;1280;49.760;9.664;2024-03-22T06:10:56;34.40;;;20.73;;
2538;SDS011;1280;49.760;9.664;2024-03-22T06:13:39;39.40;;;22.93;;
2538;SDS011;1280;49.760;9.664;2024-03-22T06:16:09;43.67;;;25.07;;
2538;SDS011;1280;49.760;9.664;2024-03-22T06:18:38;35.17;;;23.13;;
2538;SDS011;1280;49.760;9.664;2024-03-22T06:21:08;36.87;;;23.43;;
2538;SDS011;1280;49.760;9.664;2024-03-22T06:23:39;44.97;;;27.67;;
2538;SDS011;1280;49.760;9.664;2024-03-22T06:26:09;43.50;;;22.63;;
2538;SDS011;1280;49.760;9.664;2024-03-22T06:28:44;37.53;;;23.10;;
2538;SDS011;1280;49.760;9.664;2024-03-22T06:31:13;35.13;;;25.17;;
2538;SDS011;1280;49.760;9.664;2024-03-22T06:33:44;39.17;;;26.77;;
2538;SDS011;1280;49.760;9.664;2024-03-22T06:36:14;41.30;;;26.87;;
2538;SDS011;1280;49.760;9.664;2024-03-22T06:38:51;40.87;;;24.20;;
2538;SDS011;1280;49.760;9.664;2024-03-22T06:41:18;36.73;;;22.70;;
2538;SDS011;1280;49.760;9.664;2024-03-22T06:43:51;41.53;;;24.90;;
2538;SDS011;1280;49.760;9.664;2024-03-22T06:46:19;40.63;;;26.43;;
2538;SDS011;1280;49.760;9.664;2024-03-22T06:48:48;38.10;;;22.57;;
2538;SDS011;1280;49.760;9.664;2024-03-22T06:51:16;38.30;;;23.27;;
2538;SDS011;1280;49.760;9.664;2024-03-22T06:53:46;32.60;;;21.10;;
2538;SDS011;1280;49.760;9.664;2024-03-22T06:56:14;37.53;;;22.20;;
2538;SDS011;1280;49.760;9.664;2024-03-22T06:59:05;34.17;;;22.73;;
2538;SDS011;1280;49.760;9.664;2024-03-22T07:01:34;38.37;;;22.60;;
2538;SDS011;1280;49.760;9.664;2024-03-22T07:04:03;36.50;;;23.20;;
2538;SDS011;1280;49.760;9.664;2024-03-22T07:06:30;35.93;;;22.97;;
2538;SDS011;1280;49.760;9.664;2024-03-22T07:09:08;33.13;;;21.23;;
2538;SDS011;1280;49.760;9.664;2024-03-22T07:11:41;38.13;;;23.07;;
2538;SDS011;1280;49.760;9.664;2024-03-22T07:14:14;38.47;;;25.20;;
2538;SDS011;1280;49.760;9.664;2024-03-22T07:16:45;42.73;;;25.70;;
2538;SDS011;1280;49.760;9.664;2024-03-22T07:19:13;46.00;;;27.10;;
2538;SDS011;1280;49.760;9.664;2024-03-22T07:21:44;41.23;;;23.27;;
2538;SDS011;1280;49.760;9.664;2024-03-22T07:24:14;34.63;;;20.23;;
2538;SDS011;1280;49.760;9.664;2024-03-22T07:26:44;37.67;;;20.63;;
2538;SDS011;1280;49.760;9.664;2024-03-22T07:29:25;38.20;;;22.80;;
2538;SDS011;1280;49.760;9.664;2024-03-22T07:31:54;30.93;;;19.20;;
2538;SDS011;1280;49.760;9.664;2024-03-22T07:34:20;32.00;;;20.03;;
2538;SDS011;1280;49.760;9.664;2024-03-22T07:36:51;37.63;;;21.27;;
2538;SDS011;1280;49.760;9.664;2024-03-22T07:39:18;28.40;;;18.13;;
2538;SDS011;1280;49.760;9.664;2024-03-22T07:41:47;31.40;;;18.40;;
2538;SDS011;1280;49.760;9.664;2024-03-22T07:44:19;36.93;;;19.47;;
2538;SDS011;1280;49.760;9.664;2024-03-22T07:46:50;29.60;;;17.60;;
2538;SDS011;1280;49.760;9.664;2024-03-22T07:49:17;31.97;;;19.20;;
2538;SDS011;1280;49.760;9.664;2024-03-22T07:52:04;28.70;;;18.53;;
2538;SDS011;1280;49.760;9.664;2024-03-22T07:54:33;30.40;;;17.17;;
2538;SDS011;1280;49.760;9.664;2024-03-22T07:57:05;30.83;;;18.77;;
2538;SDS011;1280;49.760;9.664;2024-03-22T07:59:40;31.00;;;18.83;;
2538;SDS011;1280;49.760;9.664;2024-03-22T08:02:10;27.33;;;18.57;;
2538;SDS011;1280;49.760;9.664;2024-03-22T08:04:42;35.40;;;18.33;;
2538;SDS011;1280;49.760;9.664;2024-03-22T08:07:12;31.50;;;18.13;;
2538;SDS011;1280;49.760;9.664;2024-03-22T08:09:52;32.30;;;18.73;;
2538;SDS011;1280;49.760;9.664;2024-03-22T08:12:19;28.00;;;17.03;;
2538;SDS011;1280;49.760;9.664;2024-03-22T08:15:16;29.03;;;17.80;;
2538;SDS011;1280;49.760;9.664;2024-03-22T08:17:48;30.57;;;19.40;;
2538;SDS011;1280;49.760;9.664;2024-03-22T08:20:18;27.63;;;17.73;;
2538;SDS011;1280;49.760;9.664;2024-03-22T08:22:59;29.63;;;17.80;;
2538;SDS011;1280;49.760;9.664;2024-03-22T08:25:27;30.97;;;19.67;;
2538;SDS011;1280;49.760;9.664;2024-03-22T08:27:55;33.10;;;18.53;;
2538;SDS011;1280;49.760;9.664;2024-03-22T08:30:22;28.83;;;17.60;;
2538;SDS011;1280;49.760;9.664;2024-03-22T08:32:50;27.10;;;16.60;;
2538;SDS011;1280;49.760;9.664;2024-03-22T08:35:16;24.70;;;15.30;;
2538;SDS011;1280;49.760;9.664;2024-03-22T08:37:44;28.00;;;18.30;;
2538;SDS011;1280;49.760;9.664;2024-03-22T08:40:12;25.63;;;15.93;;
2538;SDS011;1280;49.760;9.664;2024-03-22T08:42:46;25.20;;;15.90;;
2538;SDS011;1280;49.760;9.664;2024-03-22T08:45:14;20.23;;;12.83;;
2538;SDS011;1280;49.760;9.664;2024-03-22T08:47:49;20.30;;;12.90;;
2538;SDS011;1280;49.760;9.664;2024-03-22T08:50:18;16.23;;;10.10;;
2538;SDS011;1280;49.760;9.664;2024-03-22T08:52:51;18.30;;;11.37;;
2538;SDS011;1280;49.760;9.664;2024-03-22T08:55:18;16.50;;;9.73;;
2538;SDS011;1280;49.760;9.664;2024-03-22T08:57:48;17.40;;;10.53;;
2538;SDS011;1280;49.760;9.664;2024-03-22T09:00:16;15.83;;;10.33;;
2538;SDS011;1280;49.760;9.664;2024-03-22T09:02:51;16.47;;;9.73;;
2538;SDS011;1280;49.760;9.664;2024-03-22T09:05:19;16.00;;;9.90;;
2538;SDS011;1280;49.760;9.664;2024-03-22T09:07:52;15.33;;;9.17;;
2538;SDS011;1280;49.760;9.664;2024-03-22T09:10:22;13.40;;;8.60;;
2538;SDS011;1280;49.760;9.664;2024-03-22T09:12:51;17.40;;;9.17;;
2538;SDS011;1280;49.760;9.664;2024-03-22T09:15:20;16.00;;;9.47;;
2538;SDS011;1280;49.760;9.664;2024-03-22T09:17:51;13.40;;;8.63;;
2538;SDS011;1280;49.760;9.664;2024-03-22T09:20:18;16.17;;;8.40;;
2538;SDS011;1280;49.760;9.664;2024-03-22T09:22:48;12.90;;;7.87;;
2538;SDS011;1280;49.760;9.664;2024-03-22T09:25:16;11.77;;;7.50;;
2538;SDS011;1280;49.760;9.664;2024-03-22T09:27:44;11.07;;;6.50;;
2538;SDS011;1280;49.760;9.664;2024-03-22T09:30:13;11.77;;;6.60;;
2538;SDS011;1280;49.760;9.664;2024-03-22T09:32:44;12.00;;;6.40;;
2538;SDS011;1280;49.760;9.664;2024-03-22T09:35:14;9.50;;;5.50;;
2538;SDS011;1280;49.760;9.664;2024-03-22T09:37:46;8.70;;;5.33;;
2538;SDS011;1280;49.760;9.664;2024-03-22T09:40:13;10.73;;;5.33;;
2538;SDS011;1280;49.760;9.664;2024-03-22T09:42:41;9.33;;;4.33;;
2538;SDS011;1280;49.760;9.664;2024-03-22T09:45:11;7.10;;;4.17;;
2538;SDS011;1280;49.760;9.664;2024-03-22T09:47:47;11.90;;;4.23;;
2538;SDS011;1280;49.760;9.664;2024-03-22T09:50:29;9.87;;;4.70;;
2538;SDS011;1280;49.760;9.664;2024-03-22T09:53:04;9.77;;;3.60;;
2538;SDS011;1280;49.760;9.664;2024-03-22T09:55:34;8.03;;;3.87;;
2538;SDS011;1280;49.760;9.664;2024-03-22T09:58:10;9.00;;;4.17;;
2538;SDS011;1280;49.760;9.664;2024-03-22T10:00:40;9.03;;;4.13;;
2538;SDS011;1280;49.760;9.664;2024-03-22T10:03:08;11.23;;;4.47;;
2538;SDS011;1280;49.760;9.664;2024-03-22T10:05:44;6.00;;;2.87;;
2538;SDS011;1280;49.760;9.664;2024-03-22T10:08:28;8.90;;;3.03;;
2538;SDS011;1280;49.760;9.664;2024-03-22T10:11:01;7.37;;;2.53;;
2538;SDS011;1280;49.760;9.664;2024-03-22T10:13:31;6.20;;;2.60;;
2538;SDS011;1280;49.760;9.664;2024-03-22T10:16:06;5.97;;;2.50;;
2538;SDS011;1280;49.760;9.664;2024-03-22T10:18:34;6.03;;;2.40;;
2538;SDS011;1280;49.760;9.664;2024-03-22T10:21:27;4.73;;;1.83;;
2538;SDS011;1280;49.760;9.664;2024-03-22T10:23:55;6.90;;;2.33;;
2538;SDS011;1280;49.760;9.664;2024-03-22T10:26:28;5.00;;;2.00;;
2538;SDS011;1280;49.760;9.664;2024-03-22T10:29:00;5.17;;;1.80;;
2538;SDS011;1280;49.760;9.664;2024-03-22T10:31:42;6.07;;;2.30;;
2538;SDS011;1280;49.760;9.664;2024-03-22T10:34:09;4.87;;;2.30;;
2538;SDS011;1280;49.760;9.664;2024-03-22T10:36:52;4.07;;;1.57;;
2538;SDS011;1280;49.760;9.664;2024-03-22T10:39:26;6.10;;;1.80;;
2538;SDS011;1280;49.760;9.664;2024-03-22T10:42:06;4.47;;;1.60;;
2538;SDS011;1280;49.760;9.664;2024-03-22T10:44:37;4.10;;;1.50;;
2538;SDS011;1280;49.760;9.664;2024-03-22T10:47:09;4.20;;;1.50;;
2538;SDS011;1280;49.760;9.664;2024-03-22T10:49:39;4.67;;;1.70;;
2538;SDS011;1280;49.760;9.664;2024-03-22T10:52:22;3.60;;;1.10;;
2538;SDS011;1280;49.760;9.664;2024-03-22T10:54:52;4.10;;;1.20;;
2538;SDS011;1280;49.760;9.664;2024-03-22T10:57:22;4.10;;;1.50;;
2538;SDS011;1280;49.760;9.664;2024-03-22T10:59:54;4.57;;;1.60;;
2538;SDS011;1280;49.760;9.664;2024-03-22T11:02:36;8.67;;;1.17;;
2538;SDS011;1280;49.760;9.664;2024-03-22T11:05:07;5.27;;;1.83;;
2538;SDS011;1280;49.760;9.664;2024-03-22T11:07:47;7.93;;;1.90;;
2538;SDS011;1280;49.760;9.664;2024-03-22T11:10:37;5.40;;;1.90;;
2538;SDS011;1280;49.760;9.664;2024-03-22T11:13:10;4.93;;;1.60;;
2538;SDS011;1280;49.760;9.664;2024-03-22T11:15:40;3.90;;;1.00;;
2538;SDS011;1280;49.760;9.664;2024-03-22T11:18:17;3.53;;;0.83;;
2538;SDS011;1280;49.760;9.664;2024-03-22T11:20:47;5.70;;;1.60;;
2538;SDS011;1280;49.760;9.664;2024-03-22T11:23:22;4.00;;;1.30;;
2538;SDS011;1280;49.760;9.664;2024-03-22T11:25:51;4.23;;;1.10;;
2538;SDS011;1280;49.760;9.664;2024-03-22T11:28:24;5.73;;;1.30;;
2538;SDS011;1280;49.760;9.664;2024-03-22T11:30:52;3.97;;;1.10;;
2538;SDS011;1280;49.760;9.664;2024-03-22T11:33:24;3.67;;;0.90;;
2538;SDS011;1280;49.760;9.664;2024-03-22T11:35:59;4.10;;;1.10;;
2538;SDS011;1280;49.760;9.664;2024-03-22T11:38:34;3.80;;;0.90;;
2538;SDS011;1280;49.760;9.664;2024-03-22T11:41:04;4.30;;;1.00;;
2538;SDS011;1280;49.760;9.664;2024-03-22T11:43:37;5.13;;;1.00;;
2538;SDS011;1280;49.760;9.664;2024-03-22T11:46:06;3.90;;;1.00;;
2538;SDS011;1280;49.760;9.664;2024-03-22T11:48:39;5.07;;;1.00;;
2538;SDS011;1280;49.760;9.664;2024-03-22T11:51:07;3.83;;;1.10;;
2538;SDS011;1280;49.760;9.664;2024-03-22T11:53:48;5.07;;;1.20;;
2538;SDS011;1280;49.760;9.664;2024-03-22T11:56:25;3.90;;;1.13;;
2538;SDS011;1280;49.760;9.664;2024-03-22T11:58:58;4.00;;;1.00;;
2538;SDS011;1280;49.760;9.664;2024-03-22T12:01:33;4.10;;;1.20;;
2538;SDS011;1280;49.760;9.664;2024-03-22T12:04:03;4.07;;;1.03;;
2538;SDS011;1280;49.760;9.664;2024-03-22T12:06:37;7.50;;;1.50;;
2538;SDS011;1280;49.760;9.664;2024-03-22T12:09:07;3.67;;;1.13;;
2538;SDS011;1280;49.760;9.664;2024-03-22T12:11:37;4.47;;;1.43;;
2538;SDS011;1280;49.760;9.664;2024-03-22T12:14:06;5.57;;;1.40;;
2538;SDS011;1280;49.760;9.664;2024-03-22T12:16:33;4.93;;;1.50;;
2538;SDS011;1280;49.760;9.664;2024-03-22T12:18:59;5.50;;;1.20;;
2538;SDS011;1280;49.760;9.664;2024-03-22T12:21:26;5.30;;;1.80;;
2538;SDS011;1280;49.760;9.664;2024-03-22T12:23:52;5.23;;;1.43;;
2538;SDS011;1280;49.760;9.664;2024-03-22T12:26:21;5.40;;;1.90;;
2538;SDS011;1280;49.760;9.664;2024-03-22T12:28:47;5.63;;;1.73;;
2538;SDS011;1280;49.760;9.664;2024-03-22T12:31:16;4.90;;;1.80;;
2538;SDS011;1280;49.760;9.664;2024-03-22T12:33:44;5.80;;;2.10;;
2538;SDS011;1280;49.760;9.664;2024-03-22T12:36:16;6.23;;;2.17;;
2538;SDS011;1280;49.760;9.664;2024-03-22T12:38:50;5.33;;;2.30;;
2538;SDS011;1280;49.760;9.664;2024-03-22T12:41:24;6.03;;;2.50;;
2538;SDS011;1280;49.760;9.664;2024-03-22T12:43:50;7.30;;;2.53;;
2538;SDS011;1280;49.760;9.664;2024-03-22T12:46:20;6.53;;;2.70;;
2538;SDS011;1280;49.760;9.664;2024-03-22T12:48:52;4.97;;;2.20;;
2538;SDS011;1280;49.760;9.664;2024-03-22T12:51:34;5.40;;;2.47;;
2538;SDS011;1280;49.760;9.664;2024-03-22T12:54:06;5.73;;;2.17;;
2538;SDS011;1280;49.760;9.664;2024-03-22T12:56:37;6.10;;;2.77;;
2538;SDS011;1280;49.760;9.664;2024-03-22T12:59:10;5.90;;;2.87;;
2538;SDS011;1280;49.760;9.664;2024-03-22T13:01:36;6.30;;;2.70;;
2538;SDS011;1280;49.760;9.664;2024-03-22T13:04:09;6.90;;;2.90;;
2538;SDS011;1280;49.760;9.664;2024-03-22T13:06:37;5.47;;;2.37;;
2538;SDS011;1280;49.760;9.664;2024-03-22T13:09:14;5.93;;;2.57;;
2538;SDS011;1280;49.760;9.664;2024-03-22T13:11:52;5.07;;;2.50;;
2538;SDS011;1280;49.760;9.664;2024-03-22T13:14:19;5.90;;;2.80;;
2538;SDS011;1280;49.760;9.664;2024-03-22T13:16:47;6.23;;;2.30;;
2538;SDS011;1280;49.760;9.664;2024-03-22T13:19:19;9.13;;;3.10;;
2538;SDS011;1280;49.760;9.664;2024-03-22T13:21:46;5.97;;;2.70;;
2538;SDS011;1280;49.760;9.664;2024-03-22T13:24:25;7.63;;;2.50;;
2538;SDS011;1280;49.760;9.664;2024-03-22T13:27:01;11.60;;;3.17;;
2538;SDS011;1280;49.760;9.664;2024-03-22T13:29:30;7.30;;;2.73;;
2538;SDS011;1280;49.760;9.664;2024-03-22T13:32:05;6.93;;;2.57;;
2538;SDS011;1280;49.760;9.664;2024-03-22T13:34:34;6.03;;;2.47;;
2538;SDS011;1280;49.760;9.664;2024-03-22T13:37:03;5.17;;;2.47;;
2538;SDS011;1280;49.760;9.664;2024-03-22T13:39:33;6.13;;;2.73;;
2538;SDS011;1280;49.760;9.664;2024-03-22T13:42:05;5.53;;;2.90;;
2538;SDS011;1280;49.760;9.664;2024-03-22T13:44:32;5.57;;;2.77;;
2538;SDS011;1280;49.760;9.664;2024-03-22T13:47:16;6.60;;;2.60;;
2538;SDS011;1280;49.760;9.664;2024-03-22T13:49:53;6.40;;;2.70;;
2538;SDS011;1280;49.760;9.664;2024-03-22T13:52:20;4.63;;;2.23;;
2538;SDS011;1280;49.760;9.664;2024-03-22T13:54:51;7.20;;;2.43;;
2538;SDS011;1280;49.760;9.664;2024-03-22T13:57:24;5.80;;;2.80;;
2538;SDS011;1280;49.760;9.664;2024-03-22T13:59:56;10.30;;;3.17;;
2538;SDS011;1280;49.760;9.664;2024-03-22T14:02:25;9.50;;;2.70;;
2538;SDS011;1280;49.760;9.664;2024-03-22T14:04:53;5.30;;;2.40;;
2538;SDS011;1280;49.760;9.664;2024-03-22T14:07:24;6.20;;;2.33;;
2538;SDS011;1280;49.760;9.664;2024-03-22T14:09:54;7.50;;;2.87;;
2538;SDS011;1280;49.760;9.664;2024-03-22T14:12:25;6.37;;;2.70;;
2538;SDS011;1280;49.760;9.664;2024-03-22T14:14:55;6.40;;;2.93;;
2538;SDS011;1280;49.760;9.664;2024-03-22T14:17:28;5.50;;;2.70;;
2538;SDS011;1280;49.760;9.664;2024-03-22T14:19:59;6.40;;;2.47;;
2538;SDS011;1280;49.760;9.664;2024-03-22T14:22:26;7.40;;;2.97;;
2538;SDS011;1280;49.760;9.664;2024-03-22T14:25:00;6.93;;;2.63;;
2538;SDS011;1280;49.760;9.664;2024-03-22T14:27:36;5.90;;;2.53;;
2538;SDS011;1280;49.760;9.664;2024-03-22T14:30:05;6.17;;;2.83;;
2538;SDS011;1280;49.760;9.664;2024-03-22T14:32:36;7.43;;;2.77;;
2538;SDS011;1280;49.760;9.664;2024-03-22T14:35:07;6.37;;;2.30;;
2538;SDS011;1280;49.760;9.664;2024-03-22T14:37:36;5.13;;;2.50;;
2538;SDS011;1280;49.760;9.664;2024-03-22T14:40:07;9.37;;;3.00;;
2538;SDS011;1280;49.760;9.664;2024-03-22T14:42:44;6.20;;;3.03;;
2538;SDS011;1280;49.760;9.664;2024-03-22T14:45:18;9.40;;;3.70;;
2538;SDS011;1280;49.760;9.664;2024-03-22T14:47:48;6.37;;;3.23;;
2538;SDS011;1280;49.760;9.664;2024-03-22T14:50:14;6.30;;;2.37;;
2538;SDS011;1280;49.760;9.664;2024-03-22T14:52:47;10.83;;;3.20;;
2538;SDS011;1280;49.760;9.664;2024-03-22T14:55:14;7.60;;;2.77;;
2538;SDS011;1280;49.760;9.664;2024-03-22T14:57:48;6.53;;;2.90;;
2538;SDS011;1280;49.760;9.664;2024-03-22T15:00:15;7.50;;;3.50;;
2538;SDS011;1280;49.760;9.664;2024-03-22T15:02:53;6.50;;;2.90;;
2538;SDS011;1280;49.760;9.664;2024-03-22T15:05:23;5.53;;;2.90;;
2538;SDS011;1280;49.760;9.664;2024-03-22T15:07:53;7.57;;;3.00;;
2538;SDS011;1280;49.760;9.664;2024-03-22T15:10:22;7.10;;;3.17;;
2538;SDS011;1280;49.760;9.664;2024-03-22T15:13:01;7.43;;;3.07;;
2538;SDS011;1280;49.760;9.664;2024-03-22T15:15:28;5.80;;;3.03;;
2538;SDS011;1280;49.760;9.664;2024-03-22T15:17:59;7.77;;;3.13;;
2538;SDS011;1280;49.760;9.664;2024-03-22T15:20:30;7.13;;;3.30;;
2538;SDS011;1280;49.760;9.664;2024-03-22T15:23:03;6.47;;;3.00;;
2538;SDS011;1280;49.760;9.664;2024-03-22T15:25:32;7.57;;;3.43;;